sensor_id;sensor_type;location;lat;lon;timestamp;P1;durP1;ratioP1;P2;durP2;ratioP2
9188;SDS011;34313;50.780;6.084;2023-06-22T00:01:27;13.63;;;8.60;;
9188;SDS011;34313;50.780;6.084;2023-06-22T00:03:52;11.63;;;9.73;;
9188;SDS011;34313;50.780;6.084;2023-06-22T00:06:18;10.60;;;7.83;;
9188;SDS011;34313;50.780;6.084;2023-06-22T00:08:43;11.50;;;8.97;;
9188;SDS011;34313;50.780;6.084;2023-06-22T00:11:08;11.20;;;8.80;;
9188;SDS011;34313;50.780;6.084;2023-06-22T00:13:34;13.57;;;10.87;;
9188;SDS011;34313;50.780;6.084;2023-06-22T00:15:59;10.37;;;9.30;;
9188;SDS011;34313;50.780;6.084;2023-06-22T00:18:24;13.07;;;10.60;;
9188;SDS011;34313;50.780;6.084;2023-06-22T00:20:53;15.87;;;10.50;;
9188;SDS011;34313;50.780;6.084;2023-06-22T00:23:22;10.70;;;9.60;;
9188;SDS011;34313;50.780;6.084;2023-06-22T00:25:48;12.03;;;9.20;;
9188;SDS011;34313;50.780;6.084;2023-06-22T00:28:14;10.33;;;8.97;;
9188;SDS011;34313;50.780;6.084;2023-06-22T00:30:39;14.77;;;10.13;;
9188;SDS011;34313;50.780;6.084;2023-06-22T00:33:04;10.53;;;9.43;;
9188;SDS011;34313;50.780;6.084;2023-06-22T00:35:32;11.10;;;10.00;;
9188;SDS011;34313;50.780;6.084;2023-06-22T00:37:59;11.57;;;9.03;;
9188;SDS011;34313;50.780;6.084;2023-06-22T00:40:30;11.47;;;8.70;;
9188;SDS011;34313;50.780;6.084;2023-06-22T00:42:57;11.27;;;9.13;;
9188;SDS011;34313;50.780;6.084;2023-06-22T00:45:23;9.97;;;8.30;;
9188;SDS011;34313;50.780;6.084;2023-06-22T00:47:50;8.80;;;7.83;;
9188;SDS011;34313;50.780;6.084;2023-06-22T00:50:17;10.93;;;8.87;;
9188;SDS011;34313;50.780;6.084;2023-06-22T00:52:47;14.27;;;9.50;;
9188;SDS011;34313;50.780;6.084;2023-06-22T00:55:15;13.10;;;9.50;;
9188;SDS011;34313;50.780;6.084;2023-06-22T00:57:43;9.90;;;8.90;;
9188;SDS011;34313;50.780;6.084;2023-06-22T01:00:10;11.17;;;8.63;;
9188;SDS011;34313;50.780;6.084;2023-06-22T01:02:41;11.40;;;8.83;;
9188;SDS011;34313;50.780;6.084;2023-06-22T01:05:09;9.53;;;8.27;;
9188;SDS011;34313;50.780;6.084;2023-06-22T01:07:35;10.03;;;8.30;;
9188;SDS011;34313;50.780;6.084;2023-06-22T01:10:16;9.60;;;8.60;;
9188;SDS011;34313;50.780;6.084;2023-06-22T01:12:53;11.30;;;8.60;;
9188;SDS011;34313;50.780;6.084;2023-06-22T01:15:30;8.63;;;7.27;;
9188;SDS011;34313;50.780;6.084;2023-06-22T01:17:59;8.30;;;7.40;;
9188;SDS011;34313;50.780;6.084;2023-06-22T01:20:28;9.40;;;8.40;;
9188;SDS011;34313;50.780;6.084;2023-06-22T01:23:02;12.70;;;9.07;;
9188;SDS011;34313;50.780;6.084;2023-06-22T01:25:48;8.43;;;7.63;;
9188;SDS011;34313;50.780;6.084;2023-06-22T01:31:13;10.10;;;6.93;;
9188;SDS011;34313;50.780;6.084;2023-06-22T01:33:43;10.63;;;8.60;;
9188;SDS011;34313;50.780;6.084;2023-06-22T01:36:11;10.20;;;8.80;;
9188;SDS011;34313;50.780;6.084;2023-06-22T01:38:38;11.60;;;8.10;;
9188;SDS011;34313;50.780;6.084;2023-06-22T01:41:04;10.83;;;8.50;;
9188;SDS011;34313;50.780;6.084;2023-06-22T01:43:30;8.03;;;7.23;;
9188;SDS011;34313;50.780;6.084;2023-06-22T01:45:57;10.00;;;8.43;;
9188;SDS011;34313;50.780;6.084;2023-06-22T01:48:24;9.27;;;8.07;;
9188;SDS011;34313;50.780;6.084;2023-06-22T01:50:51;11.67;;;8.80;;
9188;SDS011;34313;50.780;6.084;2023-06-22T01:53:17;11.07;;;8.20;;
9188;SDS011;34313;50.780;6.084;2023-06-22T01:55:43;12.57;;;8.63;;
9188;SDS011;34313;50.780;6.084;2023-06-22T01:58:08;9.30;;;8.30;;
9188;SDS011;34313;50.780;6.084;2023-06-22T02:00:35;11.47;;;8.53;;
9188;SDS011;34313;50.780;6.084;2023-06-22T02:03:05;10.40;;;9.03;;
9188;SDS011;34313;50.780;6.084;2023-06-22T02:05:39;10.63;;;8.67;;
9188;SDS011;34313;50.780;6.084;2023-06-22T02:08:17;10.60;;;9.23;;
9188;SDS011;34313;50.780;6.084;2023-06-22T02:10:46;9.97;;;8.47;;
9188;SDS011;34313;50.780;6.084;2023-06-22T02:13:13;9.40;;;8.33;;
9188;SDS011;34313;50.780;6.084;2023-06-22T02:15:39;11.47;;;8.40;;
9188;SDS011;34313;50.780;6.084;2023-06-22T02:18:05;12.10;;;9.00;;
9188;SDS011;34313;50.780;6.084;2023-06-22T02:20:31;9.63;;;8.33;;
9188;SDS011;34313;50.780;6.084;2023-06-22T02:22:56;10.60;;;9.50;;
9188;SDS011;34313;50.780;6.084;2023-06-22T02:25:21;11.90;;;8.60;;
9188;SDS011;34313;50.780;6.084;2023-06-22T02:27:47;12.20;;;8.70;;
9188;SDS011;34313;50.780;6.084;2023-06-22T02:30:12;8.53;;;7.43;;
9188;SDS011;34313;50.780;6.084;2023-06-22T02:32:39;10.70;;;9.07;;
9188;SDS011;34313;50.780;6.084;2023-06-22T02:35:11;11.50;;;8.73;;
9188;SDS011;34313;50.780;6.084;2023-06-22T02:37:37;11.23;;;9.07;;
9188;SDS011;34313;50.780;6.084;2023-06-22T02:40:09;11.70;;;9.10;;
9188;SDS011;34313;50.780;6.084;2023-06-22T02:42:35;11.70;;;9.40;;
9188;SDS011;34313;50.780;6.084;2023-06-22T02:45:01;9.97;;;8.67;;
9188;SDS011;34313;50.780;6.084;2023-06-22T02:47:27;9.63;;;8.63;;
9188;SDS011;34313;50.780;6.084;2023-06-22T02:49:52;11.20;;;8.10;;
9188;SDS011;34313;50.780;6.084;2023-06-22T02:52:17;12.03;;;9.77;;
9188;SDS011;34313;50.780;6.084;2023-06-22T02:54:43;12.03;;;8.43;;
9188;SDS011;34313;50.780;6.084;2023-06-22T02:57:10;14.20;;;8.40;;
9188;SDS011;34313;50.780;6.084;2023-06-22T02:59:38;11.73;;;9.03;;
9188;SDS011;34313;50.780;6.084;2023-06-22T03:02:05;15.23;;;9.80;;
9188;SDS011;34313;50.780;6.084;2023-06-22T03:04:31;12.10;;;8.37;;
9188;SDS011;34313;50.780;6.084;2023-06-22T03:06:56;12.37;;;10.40;;
9188;SDS011;34313;50.780;6.084;2023-06-22T03:09:25;10.60;;;8.87;;
9188;SDS011;34313;50.780;6.084;2023-06-22T03:11:52;10.73;;;9.20;;
9188;SDS011;34313;50.780;6.084;2023-06-22T03:14:18;11.57;;;8.87;;
9188;SDS011;34313;50.780;6.084;2023-06-22T03:16:43;12.93;;;9.90;;
9188;SDS011;34313;50.780;6.084;2023-06-22T03:19:08;11.40;;;8.93;;
9188;SDS011;34313;50.780;6.084;2023-06-22T03:21:34;11.10;;;8.83;;
9188;SDS011;34313;50.780;6.084;2023-06-22T03:23:59;11.43;;;9.20;;
9188;SDS011;34313;50.780;6.084;2023-06-22T03:26:24;12.97;;;9.40;;
9188;SDS011;34313;50.780;6.084;2023-06-22T03:28:51;11.93;;;8.90;;
9188;SDS011;34313;50.780;6.084;2023-06-22T03:31:17;12.47;;;8.73;;
9188;SDS011;34313;50.780;6.084;2023-06-22T03:33:46;15.13;;;9.33;;
9188;SDS011;34313;50.780;6.084;2023-06-22T03:36:12;9.17;;;8.20;;
9188;SDS011;34313;50.780;6.084;2023-06-22T03:38:37;10.10;;;7.70;;
9188;SDS011;34313;50.780;6.084;2023-06-22T03:41:03;14.50;;;9.20;;
9188;SDS011;34313;50.780;6.084;2023-06-22T03:43:28;11.83;;;8.60;;
9188;SDS011;34313;50.780;6.084;2023-06-22T03:45:53;10.40;;;8.63;;
9188;SDS011;34313;50.780;6.084;2023-06-22T03:48:18;14.40;;;10.90;;
9188;SDS011;34313;50.780;6.084;2023-06-22T03:50:44;12.33;;;8.80;;
9188;SDS011;34313;50.780;6.084;2023-06-22T03:53:09;12.87;;;9.17;;
9188;SDS011;34313;50.780;6.084;2023-06-22T03:55:35;13.50;;;9.43;;
9188;SDS011;34313;50.780;6.084;2023-06-22T03:58:00;11.63;;;9.00;;
9188;SDS011;34313;50.780;6.084;2023-06-22T04:00:30;11.13;;;9.30;;
9188;SDS011;34313;50.780;6.084;2023-06-22T04:02:58;12.70;;;10.00;;
9188;SDS011;34313;50.780;6.084;2023-06-22T04:05:24;12.80;;;8.80;;
9188;SDS011;34313;50.780;6.084;2023-06-22T04:07:49;18.70;;;8.50;;
9188;SDS011;34313;50.780;6.084;2023-06-22T04:10:15;10.80;;;8.53;;
9188;SDS011;34313;50.780;6.084;2023-06-22T04:12:40;10.60;;;8.80;;
9188;SDS011;34313;50.780;6.084;2023-06-22T04:15:05;9.60;;;8.30;;
9188;SDS011;34313;50.780;6.084;2023-06-22T04:17:31;9.50;;;8.20;;
9188;SDS011;34313;50.780;6.084;2023-06-22T04:19:56;10.40;;;8.37;;
9188;SDS011;34313;50.780;6.084;2023-06-22T04:22:21;11.53;;;8.40;;
9188;SDS011;34313;50.780;6.084;2023-06-22T04:24:47;11.40;;;8.63;;
9188;SDS011;34313;50.780;6.084;2023-06-22T04:27:12;14.27;;;8.00;;
9188;SDS011;34313;50.780;6.084;2023-06-22T04:29:37;10.07;;;7.60;;
9188;SDS011;34313;50.780;6.084;2023-06-22T04:32:03;10.50;;;7.83;;
9188;SDS011;34313;50.780;6.084;2023-06-22T04:34:30;10.83;;;8.20;;
9188;SDS011;34313;50.780;6.084;2023-06-22T04:36:56;14.03;;;8.00;;
9188;SDS011;34313;50.780;6.084;2023-06-22T04:39:21;12.03;;;7.97;;
9188;SDS011;34313;50.780;6.084;2023-06-22T04:41:47;12.50;;;8.80;;
9188;SDS011;34313;50.780;6.084;2023-06-22T04:46:48;11.53;;;6.47;;
9188;SDS011;34313;50.780;6.084;2023-06-22T04:49:18;10.20;;;7.57;;
9188;SDS011;34313;50.780;6.084;2023-06-22T04:51:45;11.83;;;7.97;;
9188;SDS011;34313;50.780;6.084;2023-06-22T04:54:10;10.33;;;7.40;;
9188;SDS011;34313;50.780;6.084;2023-06-22T04:56:36;14.37;;;8.73;;
9188;SDS011;34313;50.780;6.084;2023-06-22T04:59:02;12.47;;;8.13;;
9188;SDS011;34313;50.780;6.084;2023-06-22T05:01:30;11.57;;;7.50;;
9188;SDS011;34313;50.780;6.084;2023-06-22T05:03:56;11.50;;;8.00;;
9188;SDS011;34313;50.780;6.084;2023-06-22T05:06:22;18.60;;;8.60;;
9188;SDS011;34313;50.780;6.084;2023-06-22T05:08:51;13.27;;;8.77;;
9188;SDS011;34313;50.780;6.084;2023-06-22T05:11:18;16.80;;;10.10;;
9188;SDS011;34313;50.780;6.084;2023-06-22T05:13:43;9.97;;;8.33;;
9188;SDS011;34313;50.780;6.084;2023-06-22T05:16:08;13.57;;;8.10;;
9188;SDS011;34313;50.780;6.084;2023-06-22T05:18:34;11.60;;;9.13;;
9188;SDS011;34313;50.780;6.084;2023-06-22T05:20:59;11.07;;;8.40;;
9188;SDS011;34313;50.780;6.084;2023-06-22T05:23:25;9.73;;;7.67;;
9188;SDS011;34313;50.780;6.084;2023-06-22T05:25:51;13.87;;;8.57;;
9188;SDS011;34313;50.780;6.084;2023-06-22T05:28:16;13.53;;;9.60;;
9188;SDS011;34313;50.780;6.084;2023-06-22T05:30:41;14.27;;;8.20;;
9188;SDS011;34313;50.780;6.084;2023-06-22T05:33:06;15.00;;;9.50;;
9188;SDS011;34313;50.780;6.084;2023-06-22T05:35:32;9.77;;;8.77;;
9188;SDS011;34313;50.780;6.084;2023-06-22T05:37:57;11.17;;;9.10;;
9188;SDS011;34313;50.780;6.084;2023-06-22T05:40:22;17.70;;;9.70;;
9188;SDS011;34313;50.780;6.084;2023-06-22T05:42:48;11.93;;;10.37;;
9188;SDS011;34313;50.780;6.084;2023-06-22T05:45:13;11.73;;;7.40;;
9188;SDS011;34313;50.780;6.084;2023-06-22T05:47:38;12.43;;;8.40;;
9188;SDS011;34313;50.780;6.084;2023-06-22T05:50:04;14.97;;;10.30;;
9188;SDS011;34313;50.780;6.084;2023-06-22T05:52:33;14.10;;;9.87;;
9188;SDS011;34313;50.780;6.084;2023-06-22T05:54:59;13.77;;;10.70;;
9188;SDS011;34313;50.780;6.084;2023-06-22T05:57:24;15.53;;;8.60;;
9188;SDS011;34313;50.780;6.084;2023-06-22T05:59:51;14.13;;;9.20;;
9188;SDS011;34313;50.780;6.084;2023-06-22T06:02:16;14.33;;;9.77;;
9188;SDS011;34313;50.780;6.084;2023-06-22T06:04:42;12.23;;;9.10;;
9188;SDS011;34313;50.780;6.084;2023-06-22T06:07:07;13.20;;;10.40;;
9188;SDS011;34313;50.780;6.084;2023-06-22T06:09:32;14.60;;;10.13;;
9188;SDS011;34313;50.780;6.084;2023-06-22T06:11:57;9.40;;;8.00;;
9188;SDS011;34313;50.780;6.084;2023-06-22T06:14:23;13.47;;;9.53;;
9188;SDS011;34313;50.780;6.084;2023-06-22T06:16:48;18.17;;;10.80;;
9188;SDS011;34313;50.780;6.084;2023-06-22T06:19:14;11.37;;;7.80;;
9188;SDS011;34313;50.780;6.084;2023-06-22T06:21:40;16.27;;;9.13;;
9188;SDS011;34313;50.780;6.084;2023-06-22T06:24:05;16.80;;;9.80;;
9188;SDS011;34313;50.780;6.084;2023-06-22T06:26:30;18.00;;;9.50;;
9188;SDS011;34313;50.780;6.084;2023-06-22T06:28:58;12.47;;;9.70;;
9188;SDS011;34313;50.780;6.084;2023-06-22T06:31:25;12.43;;;8.47;;
9188;SDS011;34313;50.780;6.084;2023-06-22T06:33:53;14.50;;;10.60;;
9188;SDS011;34313;50.780;6.084;2023-06-22T06:36:19;12.13;;;9.60;;
9188;SDS011;34313;50.780;6.084;2023-06-22T06:38:44;11.17;;;9.00;;
9188;SDS011;34313;50.780;6.084;2023-06-22T06:41:12;11.17;;;9.20;;
9188;SDS011;34313;50.780;6.084;2023-06-22T06:43:37;11.20;;;8.90;;
9188;SDS011;34313;50.780;6.084;2023-06-22T06:46:03;21.07;;;11.20;;
9188;SDS011;34313;50.780;6.084;2023-06-22T06:48:28;14.40;;;10.27;;
9188;SDS011;34313;50.780;6.084;2023-06-22T06:50:53;13.03;;;10.57;;
9188;SDS011;34313;50.780;6.084;2023-06-22T06:53:18;15.53;;;10.60;;
9188;SDS011;34313;50.780;6.084;2023-06-22T06:55:44;15.17;;;11.00;;
9188;SDS011;34313;50.780;6.084;2023-06-22T06:58:10;12.30;;;10.30;;
9188;SDS011;34313;50.780;6.084;2023-06-22T07:00:38;11.13;;;9.03;;
9188;SDS011;34313;50.780;6.084;2023-06-22T07:03:04;14.60;;;10.57;;
9188;SDS011;34313;50.780;6.084;2023-06-22T07:05:29;11.20;;;9.83;;
9188;SDS011;34313;50.780;6.084;2023-06-22T07:07:55;17.50;;;10.30;;
9188;SDS011;34313;50.780;6.084;2023-06-22T07:10:20;18.60;;;8.93;;
9188;SDS011;34313;50.780;6.084;2023-06-22T07:12:46;14.57;;;7.83;;
9188;SDS011;34313;50.780;6.084;2023-06-22T07:15:11;14.52;;;9.07;;
9188;SDS011;34313;50.780;6.084;2023-06-22T07:17:37;9.75;;;6.88;;
9188;SDS011;34313;50.780;6.084;2023-06-22T07:20:05;9.23;;;8.25;;
9188;SDS011;34313;50.780;6.084;2023-06-22T07:22:39;14.60;;;8.77;;
9188;SDS011;34313;50.780;6.084;2023-06-22T07:25:05;10.10;;;8.40;;
9188;SDS011;34313;50.780;6.084;2023-06-22T07:27:37;16.57;;;8.97;;
9188;SDS011;34313;50.780;6.084;2023-06-22T07:30:05;13.93;;;9.23;;
9188;SDS011;34313;50.780;6.084;2023-06-22T07:32:31;16.03;;;9.20;;
9188;SDS011;34313;50.780;6.084;2023-06-22T07:35:02;13.53;;;9.10;;
9188;SDS011;34313;50.780;6.084;2023-06-22T07:37:28;15.27;;;9.73;;
9188;SDS011;34313;50.780;6.084;2023-06-22T07:40:00;13.40;;;9.27;;
9188;SDS011;34313;50.780;6.084;2023-06-22T07:42:28;11.97;;;9.13;;
9188;SDS011;34313;50.780;6.084;2023-06-22T07:44:57;12.50;;;9.40;;
9188;SDS011;34313;50.780;6.084;2023-06-22T07:47:33;12.60;;;8.23;;
9188;SDS011;34313;50.780;6.084;2023-06-22T07:50:14;9.37;;;7.97;;
9188;SDS011;34313;50.780;6.084;2023-06-22T07:53:46;14.17;;;8.47;;
9188;SDS011;34313;50.780;6.084;2023-06-22T07:59:30;10.73;;;9.00;;
9188;SDS011;34313;50.780;6.084;2023-06-22T08:02:06;13.03;;;10.33;;
9188;SDS011;34313;50.780;6.084;2023-06-22T08:05:08;17.87;;;10.30;;
9188;SDS011;34313;50.780;6.084;2023-06-22T08:07:42;13.20;;;10.63;;
9188;SDS011;34313;50.780;6.084;2023-06-22T08:10:20;20.07;;;10.77;;
9188;SDS011;34313;50.780;6.084;2023-06-22T08:16:27;10.30;;;8.40;;
9188;SDS011;34313;50.780;6.084;2023-06-22T08:18:58;14.83;;;9.73;;
9188;SDS011;34313;50.780;6.084;2023-06-22T08:21:39;18.67;;;11.43;;
9188;SDS011;34313;50.780;6.084;2023-06-22T08:24:18;16.13;;;11.35;;
9188;SDS011;34313;50.780;6.084;2023-06-22T08:29:27;14.70;;;11.70;;
9188;SDS011;34313;50.780;6.084;2023-06-22T08:31:55;18.20;;;10.90;;
9188;SDS011;34313;50.780;6.084;2023-06-22T08:37:29;15.70;;;10.93;;
9188;SDS011;34313;50.780;6.084;2023-06-22T08:40:11;11.65;;;9.82;;
9188;SDS011;34313;50.780;6.084;2023-06-22T08:43:01;13.88;;;11.00;;
9188;SDS011;34313;50.780;6.084;2023-06-22T08:45:55;17.38;;;11.40;;
9188;SDS011;34313;50.780;6.084;2023-06-22T08:48:36;12.40;;;9.52;;
9188;SDS011;34313;50.780;6.084;2023-06-22T08:51:16;14.15;;;10.70;;
9188;SDS011;34313;50.780;6.084;2023-06-22T08:57:17;13.07;;;9.70;;
9188;SDS011;34313;50.780;6.084;2023-06-22T08:59:46;16.55;;;10.35;;
9188;SDS011;34313;50.780;6.084;2023-06-22T09:02:20;20.73;;;10.30;;
9188;SDS011;34313;50.780;6.084;2023-06-22T09:05:24;17.98;;;10.77;;
9188;SDS011;34313;50.780;6.084;2023-06-22T09:08:14;16.00;;;9.60;;
9188;SDS011;34313;50.780;6.084;2023-06-22T09:10:58;14.02;;;10.38;;
9188;SDS011;34313;50.780;6.084;2023-06-22T09:13:50;17.83;;;10.90;;
9188;SDS011;34313;50.780;6.084;2023-06-22T09:19:27;15.60;;;11.77;;
9188;SDS011;34313;50.780;6.084;2023-06-22T09:28:48;13.70;;;11.33;;
9188;SDS011;34313;50.780;6.084;2023-06-22T09:37:54;18.93;;;12.37;;
9188;SDS011;34313;50.780;6.084;2023-06-22T09:41:06;16.77;;;10.73;;
9188;SDS011;34313;50.780;6.084;2023-06-22T09:44:12;16.10;;;11.50;;
9188;SDS011;34313;50.780;6.084;2023-06-22T09:54:22;18.30;;;13.10;;
9188;SDS011;34313;50.780;6.084;2023-06-22T09:57:11;23.53;;;11.90;;
9188;SDS011;34313;50.780;6.084;2023-06-22T10:00:20;16.27;;;12.90;;
9188;SDS011;34313;50.780;6.084;2023-06-22T10:03:43;17.23;;;12.53;;
9188;SDS011;34313;50.780;6.084;2023-06-22T10:09:51;16.50;;;13.50;;
9188;SDS011;34313;50.780;6.084;2023-06-22T10:13:32;16.70;;;14.13;;
9188;SDS011;34313;50.780;6.084;2023-06-22T10:16:59;14.93;;;13.40;;
9188;SDS011;34313;50.780;6.084;2023-06-22T10:27:59;21.97;;;17.73;;
9188;SDS011;34313;50.780;6.084;2023-06-22T10:31:26;26.50;;;16.93;;
9188;SDS011;34313;50.780;6.084;2023-06-22T10:34:22;27.80;;;20.03;;
9188;SDS011;34313;50.780;6.084;2023-06-22T10:37:38;32.40;;;18.77;;
9188;SDS011;34313;50.780;6.084;2023-06-22T10:47:19;23.73;;;18.67;;
9188;SDS011;34313;50.780;6.084;2023-06-22T10:50:37;23.60;;;19.77;;
9188;SDS011;34313;50.780;6.084;2023-06-22T10:53:14;26.50;;;19.00;;
9188;SDS011;34313;50.780;6.084;2023-06-22T10:56:22;29.23;;;20.13;;
9188;SDS011;34313;50.780;6.084;2023-06-22T11:03:35;29.07;;;20.10;;
9188;SDS011;34313;50.780;6.084;2023-06-22T11:06:05;25.90;;;20.97;;
9188;SDS011;34313;50.780;6.084;2023-06-22T11:08:49;21.23;;;18.70;;
9188;SDS011;34313;50.780;6.084;2023-06-22T11:14:18;23.90;;;20.80;;
9188;SDS011;34313;50.780;6.084;2023-06-22T11:17:04;25.90;;;20.67;;
9188;SDS011;34313;50.780;6.084;2023-06-22T11:19:59;28.70;;;22.10;;
9188;SDS011;34313;50.780;6.084;2023-06-22T11:22:28;28.73;;;20.90;;
9188;SDS011;34313;50.780;6.084;2023-06-22T11:25:04;28.30;;;20.53;;
9188;SDS011;34313;50.780;6.084;2023-06-22T11:27:54;26.40;;;20.37;;
9188;SDS011;34313;50.780;6.084;2023-06-22T11:33:32;24.17;;;19.47;;
9188;SDS011;34313;50.780;6.084;2023-06-22T11:36:06;20.80;;;18.50;;
9188;SDS011;34313;50.780;6.084;2023-06-22T11:38:45;19.33;;;16.10;;
9188;SDS011;34313;50.780;6.084;2023-06-22T11:41:20;21.37;;;16.47;;
9188;SDS011;34313;50.780;6.084;2023-06-22T11:43:45;18.93;;;14.47;;
9188;SDS011;34313;50.780;6.084;2023-06-22T11:49:17;17.10;;;13.27;;
9188;SDS011;34313;50.780;6.084;2023-06-22T11:54:55;12.80;;;11.50;;
9188;SDS011;34313;50.780;6.084;2023-06-22T11:57:20;17.63;;;14.03;;
9188;SDS011;34313;50.780;6.084;2023-06-22T12:00:07;15.47;;;13.13;;
9188;SDS011;34313;50.780;6.084;2023-06-22T12:02:44;16.37;;;14.20;;
9188;SDS011;34313;50.780;6.084;2023-06-22T12:05:29;15.70;;;14.07;;
9188;SDS011;34313;50.780;6.084;2023-06-22T12:07:57;19.23;;;16.03;;
9188;SDS011;34313;50.780;6.084;2023-06-22T12:10:26;16.70;;;13.87;;
9188;SDS011;34313;50.780;6.084;2023-06-22T12:13:24;17.40;;;15.00;;
9188;SDS011;34313;50.780;6.084;2023-06-22T12:22:22;21.33;;;16.67;;
9188;SDS011;34313;50.780;6.084;2023-06-22T12:24:57;17.10;;;15.30;;
9188;SDS011;34313;50.780;6.084;2023-06-22T12:27:29;20.47;;;15.83;;
9188;SDS011;34313;50.780;6.084;2023-06-22T12:29:55;19.90;;;16.37;;
9188;SDS011;34313;50.780;6.084;2023-06-22T12:32:21;21.40;;;17.63;;
9188;SDS011;34313;50.780;6.084;2023-06-22T12:34:46;22.63;;;17.13;;
9188;SDS011;34313;50.780;6.084;2023-06-22T12:37:12;21.17;;;17.30;;
9188;SDS011;34313;50.780;6.084;2023-06-22T12:39:45;21.43;;;15.77;;
9188;SDS011;34313;50.780;6.084;2023-06-22T12:42:10;20.03;;;16.80;;
9188;SDS011;34313;50.780;6.084;2023-06-22T12:44:39;16.60;;;14.47;;
9188;SDS011;34313;50.780;6.084;2023-06-22T12:47:06;17.47;;;15.50;;
9188;SDS011;34313;50.780;6.084;2023-06-22T12:49:31;17.23;;;15.40;;
9188;SDS011;34313;50.780;6.084;2023-06-22T12:51:57;18.83;;;15.57;;
9188;SDS011;34313;50.780;6.084;2023-06-22T12:54:29;19.47;;;15.07;;
9188;SDS011;34313;50.780;6.084;2023-06-22T12:57:06;17.87;;;14.47;;
9188;SDS011;34313;50.780;6.084;2023-06-22T12:59:34;19.97;;;15.20;;
9188;SDS011;34313;50.780;6.084;2023-06-22T13:05:24;16.87;;;14.53;;
9188;SDS011;34313;50.780;6.084;2023-06-22T13:07:49;20.70;;;14.53;;
9188;SDS011;34313;50.780;6.084;2023-06-22T13:10:15;22.97;;;14.87;;
9188;SDS011;34313;50.780;6.084;2023-06-22T13:22:50;20.97;;;16.77;;
9188;SDS011;34313;50.780;6.084;2023-06-22T13:25:15;17.27;;;15.47;;
9188;SDS011;34313;50.780;6.084;2023-06-22T13:27:44;23.57;;;17.37;;
9188;SDS011;34313;50.780;6.084;2023-06-22T13:30:10;22.10;;;19.17;;
9188;SDS011;34313;50.780;6.084;2023-06-22T13:32:50;23.57;;;18.20;;
9188;SDS011;34313;50.780;6.084;2023-06-22T13:35:34;22.73;;;18.63;;
9188;SDS011;34313;50.780;6.084;2023-06-22T13:38:00;25.00;;;17.53;;
9188;SDS011;34313;50.780;6.084;2023-06-22T13:40:26;23.17;;;19.40;;
9188;SDS011;34313;50.780;6.084;2023-06-22T13:42:51;23.37;;;19.50;;
9188;SDS011;34313;50.780;6.084;2023-06-22T13:45:16;25.97;;;21.50;;
9188;SDS011;34313;50.780;6.084;2023-06-22T13:47:44;26.80;;;23.10;;
9188;SDS011;34313;50.780;6.084;2023-06-22T13:50:58;37.20;;;25.03;;
9188;SDS011;34313;50.780;6.084;2023-06-22T13:53:39;32.83;;;25.90;;
9188;SDS011;34313;50.780;6.084;2023-06-22T13:56:26;29.53;;;25.43;;
9188;SDS011;34313;50.780;6.084;2023-06-22T13:58:54;32.33;;;24.70;;
9188;SDS011;34313;50.780;6.084;2023-06-22T14:01:23;29.97;;;25.27;;
9188;SDS011;34313;50.780;6.084;2023-06-22T14:03:50;30.13;;;24.63;;
9188;SDS011;34313;50.780;6.084;2023-06-22T14:06:16;31.47;;;26.53;;
9188;SDS011;34313;50.780;6.084;2023-06-22T14:08:41;33.47;;;26.00;;
9188;SDS011;34313;50.780;6.084;2023-06-22T14:11:07;34.07;;;26.20;;
9188;SDS011;34313;50.780;6.084;2023-06-22T14:13:32;35.47;;;27.40;;
9188;SDS011;34313;50.780;6.084;2023-06-22T14:15:57;34.57;;;27.93;;
9188;SDS011;34313;50.780;6.084;2023-06-22T14:18:23;32.60;;;28.13;;
9188;SDS011;34313;50.780;6.084;2023-06-22T14:20:50;32.40;;;27.37;;
9188;SDS011;34313;50.780;6.084;2023-06-22T14:23:28;37.00;;;28.87;;
9188;SDS011;34313;50.780;6.084;2023-06-22T14:25:53;36.63;;;28.90;;
9188;SDS011;34313;50.780;6.084;2023-06-22T14:28:19;35.60;;;30.00;;
9188;SDS011;34313;50.780;6.084;2023-06-22T14:30:44;36.93;;;30.73;;
9188;SDS011;34313;50.780;6.084;2023-06-22T14:33:12;35.00;;;30.90;;
9188;SDS011;34313;50.780;6.084;2023-06-22T14:35:53;38.03;;;29.90;;
9188;SDS011;34313;50.780;6.084;2023-06-22T14:38:19;35.73;;;29.33;;
9188;SDS011;34313;50.780;6.084;2023-06-22T14:40:46;40.90;;;31.00;;
9188;SDS011;34313;50.780;6.084;2023-06-22T14:43:12;33.70;;;29.47;;
9188;SDS011;34313;50.780;6.084;2023-06-22T14:45:37;37.77;;;30.57;;
9188;SDS011;34313;50.780;6.084;2023-06-22T14:48:03;43.73;;;33.67;;
9188;SDS011;34313;50.780;6.084;2023-06-22T14:50:31;40.93;;;32.07;;
9188;SDS011;34313;50.780;6.084;2023-06-22T14:53:00;41.63;;;31.90;;
9188;SDS011;34313;50.780;6.084;2023-06-22T14:55:25;43.43;;;35.60;;
9188;SDS011;34313;50.780;6.084;2023-06-22T14:57:50;54.90;;;38.67;;
9188;SDS011;34313;50.780;6.084;2023-06-22T15:00:16;52.50;;;40.30;;
9188;SDS011;34313;50.780;6.084;2023-06-22T15:02:46;56.33;;;42.17;;
9188;SDS011;34313;50.780;6.084;2023-06-22T15:05:11;44.10;;;33.03;;
9188;SDS011;34313;50.780;6.084;2023-06-22T15:07:37;38.27;;;30.50;;
9188;SDS011;34313;50.780;6.084;2023-06-22T15:10:02;51.00;;;34.03;;
9188;SDS011;34313;50.780;6.084;2023-06-22T15:12:28;50.30;;;35.40;;
9188;SDS011;34313;50.780;6.084;2023-06-22T15:14:53;47.47;;;36.27;;
9188;SDS011;34313;50.780;6.084;2023-06-22T15:17:19;50.73;;;36.63;;
9188;SDS011;34313;50.780;6.084;2023-06-22T15:19:49;44.87;;;34.90;;
9188;SDS011;34313;50.780;6.084;2023-06-22T15:22:20;39.50;;;33.57;;
9188;SDS011;34313;50.780;6.084;2023-06-22T15:25:09;38.10;;;23.60;;
9188;SDS011;34313;50.780;6.084;2023-06-22T15:27:35;22.00;;;18.80;;
9188;SDS011;34313;50.780;6.084;2023-06-22T15:30:01;25.73;;;21.87;;
9188;SDS011;34313;50.780;6.084;2023-06-22T15:32:29;32.77;;;27.50;;
9188;SDS011;34313;50.780;6.084;2023-06-22T15:34:55;46.00;;;34.30;;
9188;SDS011;34313;50.780;6.084;2023-06-22T15:37:21;39.67;;;33.43;;
9188;SDS011;34313;50.780;6.084;2023-06-22T15:39:46;40.70;;;32.83;;
9188;SDS011;34313;50.780;6.084;2023-06-22T15:42:38;36.37;;;31.23;;
9188;SDS011;34313;50.780;6.084;2023-06-22T15:45:31;35.97;;;29.37;;
9188;SDS011;34313;50.780;6.084;2023-06-22T15:47:59;38.73;;;32.17;;
9188;SDS011;34313;50.780;6.084;2023-06-22T15:50:25;36.83;;;32.80;;
9188;SDS011;34313;50.780;6.084;2023-06-22T15:52:59;38.03;;;31.23;;
9188;SDS011;34313;50.780;6.084;2023-06-22T15:55:27;41.30;;;34.03;;
9188;SDS011;34313;50.780;6.084;2023-06-22T15:57:56;41.77;;;34.00;;
9188;SDS011;34313;50.780;6.084;2023-06-22T16:00:25;42.93;;;35.67;;
9188;SDS011;34313;50.780;6.084;2023-06-22T16:03:10;35.87;;;31.13;;
9188;SDS011;34313;50.780;6.084;2023-06-22T16:05:55;42.87;;;35.83;;
9188;SDS011;34313;50.780;6.084;2023-06-22T16:08:30;49.60;;;39.30;;
9188;SDS011;34313;50.780;6.084;2023-06-22T16:11:04;44.40;;;38.20;;
9188;SDS011;34313;50.780;6.084;2023-06-22T16:13:41;50.77;;;41.10;;
9188;SDS011;34313;50.780;6.084;2023-06-22T16:16:10;50.70;;;43.00;;
9188;SDS011;34313;50.780;6.084;2023-06-22T16:18:36;48.77;;;40.37;;
9188;SDS011;34313;50.780;6.084;2023-06-22T16:21:01;55.33;;;46.00;;
9188;SDS011;34313;50.780;6.084;2023-06-22T16:23:26;52.80;;;43.90;;
9188;SDS011;34313;50.780;6.084;2023-06-22T16:25:52;47.97;;;40.93;;
9188;SDS011;34313;50.780;6.084;2023-06-22T16:28:17;49.60;;;40.37;;
9188;SDS011;34313;50.780;6.084;2023-06-22T16:30:45;41.77;;;36.33;;
9188;SDS011;34313;50.780;6.084;2023-06-22T16:33:10;39.37;;;33.73;;
9188;SDS011;34313;50.780;6.084;2023-06-22T16:35:36;37.73;;;33.60;;
9188;SDS011;34313;50.780;6.084;2023-06-22T16:38:04;42.37;;;33.43;;
9188;SDS011;34313;50.780;6.084;2023-06-22T16:40:36;39.23;;;34.93;;
9188;SDS011;34313;50.780;6.084;2023-06-22T16:43:02;43.17;;;36.97;;
9188;SDS011;34313;50.780;6.084;2023-06-22T16:45:27;45.00;;;37.03;;